Bookmark and Share
Track history (hours):
 

Lions Gate Bridge

Last reported at 2014-Apr-19 15:07 UTC. Time now 2014-Apr-19 19:44 UTC.
Position N 22°18' E 114°06'.

Length 284.7 m; beam 40 m.

Type: Cargo ship. MMSI: 351086000.

NotesDate/timePositionNaut miles runAvg speedWind from/ knotsBaromVisibWave heightAir tempDewpointWater temp
2014-Apr-19 15:07N 22°18' E 114°06'2 0.1
2014-Apr-18 20:06N 22°20' E 114°07'15011.9
2014-Apr-18 07:33N 22°47' E 116°47'1919.1
2014-Apr-18 06:33N 22°59' E 117°03'4418.3
2014-Apr-18 04:08N 23°28' E 117°40'1118.3
2014-Apr-18 03:32N 23°34' E 117°50'1818.0
2014-Apr-18 02:33N 23°43' E 118°06'1818.4
2014-Apr-18 01:33N 23°55' E 118°21'1817.6
2014-Apr-18 00:33N 24°13' E 118°21'10 9.8
2014-Apr-17 23:33N 24°18' E 118°12'10 9.8
2014-Apr-17 22:34N 24°25' E 118°04'3 2.6
2014-Apr-17 21:16N 24°27' E 118°01'0 0.0
2014-Apr-17 20:28N 24°27' E 118°01'0 0.0
2014-Apr-17 19:28N 24°27' E 118°01'0 0.0
2014-Apr-17 18:22N 24°27' E 118°01'0 0.0
2014-Apr-17 17:28N 24°27' E 118°01'0 0.0
2014-Apr-17 16:28N 24°27' E 118°01'0 0.0
2014-Apr-17 06:34N 24°27' E 118°01'0 0.0
2014-Apr-17 05:34N 24°27' E 118°01'0 0.0
2014-Apr-17 04:34N 24°27' E 118°01'2 2.5
2014-Apr-17 03:33N 24°26' E 118°04'10 9.8
2014-Apr-17 02:33N 24°20' E 118°12'5 5.5
2014-Apr-17 01:33N 24°15' E 118°16'8 8.2
2014-Apr-17 00:33N 24°14' E 118°25'0 0.1
2014-Apr-16 23:33N 24°14' E 118°25'0 0.1
2014-Apr-16 22:21N 24°14' E 118°25'0 0.1
2014-Apr-16 21:33N 24°14' E 118°25'0 0.1
2014-Apr-16 20:33N 24°14' E 118°24'0 0.1
2014-Apr-16 19:33N 24°14' E 118°25'0 0.1
2014-Apr-16 18:33N 24°14' E 118°24'0 0.0
2014-Apr-16 17:33N 24°14' E 118°24'0 0.2
2014-Apr-16 16:21N 24°15' E 118°24'0 0.0
2014-Apr-16 14:03N 24°15' E 118°25'0 0.0
2014-Apr-16 13:21N 24°15' E 118°25'0 0.0
2014-Apr-16 12:33N 24°14' E 118°25'0 0.0
2014-Apr-16 11:06N 24°14' E 118°25'0 0.0
2014-Apr-16 10:30N 24°14' E 118°25'0 0.0
2014-Apr-16 09:33N 24°15' E 118°25'0 0.0
2014-Apr-16 08:27N 24°14' E 118°25'0 0.2
2014-Apr-16 07:33N 24°14' E 118°24'0 0.1
2014-Apr-16 06:30N 24°14' E 118°24'0 0.1
2014-Apr-16 05:33N 24°14' E 118°24'0 0.1
2014-Apr-16 04:33N 24°14' E 118°24'0 0.1
2014-Apr-16 03:33N 24°14' E 118°24'0 0.1
2014-Apr-16 02:33N 24°14' E 118°24'0 0.1
2014-Apr-16 01:18N 24°14' E 118°24'0 0.1
2014-Apr-16 00:33N 24°14' E 118°25'9 8.6
2014-Apr-15 23:33N 24°06' E 118°27'9613.7
2014-Apr-15 16:33N 23°00' E 119°43'1414.4
2014-Apr-15 15:34N 22°51' E 119°54'1515.2
2014-Apr-15 14:33N 22°39' E 120°05'14 6.9
2014-Apr-15 12:34N 22°33' E 120°18'1 1.2
2014-Apr-15 11:32N 22°33' E 120°20'0 0.0
2014-Apr-15 10:32N 22°33' E 120°20'0 0.0
2014-Apr-15 09:32N 22°33' E 120°20'0 0.0
2014-Apr-15 08:32N 22°33' E 120°20'0 0.0
2014-Apr-15 06:32N 22°33' E 120°20'0 0.0
2014-Apr-15 03:32N 22°33' E 120°20'0 0.0
2014-Apr-15 01:32N 22°33' E 120°20'0 0.0
2014-Apr-15 00:32N 22°33' E 120°20'5 4.9
2014-Apr-14 23:34N 22°32' E 120°15'1010.0
2014-Apr-14 22:33N 22°38' E 120°06'1010.5
2014-Apr-14 21:34N 22°46' E 119°59'1211.9
2014-Apr-14 20:33N 22°57' E 119°53'101220.1
2014-Apr-12 18:07N 33°35' E 134°45'1322.3
2014-Apr-12 17:32N 33°47' E 134°51'2121.4
2014-Apr-12 16:33N 34°08' E 134°57'1616.1
2014-Apr-12 15:33N 34°23' E 135°02'1817.6
2014-Apr-12 14:33N 34°36' E 135°16'4 4.1
2014-Apr-12 13:32N 34°41' E 135°16'0 0.0
2014-Apr-12 12:32N 34°41' E 135°16'0 0.0
2014-Apr-12 11:26N 34°41' E 135°16'0 0.0
2014-Apr-12 10:26N 34°41' E 135°16'0 0.0
2014-Apr-12 09:32N 34°41' E 135°16'0 0.0
2014-Apr-12 08:29N 34°41' E 135°16'0 0.0
2014-Apr-12 07:26N 34°41' E 135°16'0 0.0
2014-Apr-12 05:32N 34°41' E 135°16'0 0.0
2014-Apr-12 04:26N 34°41' E 135°16'0 0.0
2014-Apr-12 03:32N 34°41' E 135°16'0 0.1
2014-Apr-12 02:33N 34°41' E 135°16'7 7.0
2014-Apr-12 01:33N 34°34' E 135°15'1616.4
2014-Apr-12 00:34N 34°21' E 135°03'1413.8
2014-Apr-11 23:33N 34°07' E 135°00'1010.1
2014-Apr-11 22:33N 33°57' E 134°60'240 7.0
2014-Apr-10 12:27N 34°60' E 139°40'1416.2
2014-Apr-10 11:33N 35°13' E 139°46'1212.2
2014-Apr-10 10:33N 35°25' E 139°44'1010.0
2014-Apr-10 09:33N 35°35' E 139°47'2 1.6
2014-Apr-10 08:27N 35°37' E 139°46'0 0.0
2014-Apr-10 07:30N 35°37' E 139°46'0 0.0
2014-Apr-10 06:27N 35°37' E 139°46'0 0.0
2014-Apr-10 05:30N 35°37' E 139°46'0 0.0
2014-Apr-10 04:33N 35°37' E 139°46'0 0.0
2014-Apr-10 03:33N 35°37' E 139°46'0 0.0
2014-Apr-10 02:30N 35°37' E 139°46'0 0.0
2014-Apr-10 01:33N 35°37' E 139°46'0 0.0
2014-Apr-10 00:33N 35°37' E 139°46'0 0.0
2014-Apr-09 23:33N 35°37' E 139°46'0 0.0
2014-Apr-09 22:33N 35°37' E 139°46'5 5.2
2014-Apr-09 21:33N 35°33' E 139°51'1413.8
2014-Apr-09 20:31N 35°20' E 139°44'1111.3
2014-Apr-09 19:33N 35°09' E 139°46'8 7.7
2014-Apr-09 18:33N 35°02' E 139°44'1111.3
2014-Apr-09 17:33N 34°51' E 139°47'1616.1
2014-Apr-09 16:33N 34°53' E 140°06'  

Dump ship's entire track history

sailing weather and tide predictions

Lions Gate Bridge — H9LV — position and weather